createdAt,value
2018-04-17T09:23:31.054Z,2328
2018-04-17T09:24:39.931Z,2320
2018-04-17T09:25:48.752Z,2336
2018-04-17T09:26:57.840Z,2332
2018-04-17T09:28:06.655Z,2328
2018-04-17T09:29:15.500Z,2324
2018-04-17T09:30:24.303Z,2336
2018-04-17T09:31:33.135Z,2344
2018-04-17T09:32:41.949Z,2336
2018-04-17T09:33:50.764Z,2348
2018-04-17T09:34:59.585Z,2352
2018-04-17T09:36:08.474Z,2356
2018-04-17T09:37:17.278Z,2356
2018-04-17T09:38:26.326Z,2364
2018-04-17T09:39:35.148Z,2384
2018-04-17T09:40:43.971Z,2376
2018-04-17T09:41:52.801Z,2376
2018-04-17T09:43:01.614Z,2356
2018-04-17T09:44:10.441Z,2352
2018-04-17T09:45:19.594Z,2372
2018-04-17T09:46:28.439Z,2376
2018-04-17T09:47:37.305Z,2380
2018-04-17T09:48:46.140Z,2348
2018-04-17T09:49:55.013Z,2328
2018-04-17T09:51:03.852Z,2316
2018-04-17T09:52:12.744Z,2292
2018-04-17T09:53:21.638Z,2288
2018-04-17T09:54:30.702Z,2300
2018-04-17T09:55:39.928Z,2304
2018-04-17T09:56:48.788Z,2308
2018-04-17T09:57:57.637Z,2288
2018-04-17T09:59:06.498Z,2276
2018-04-17T10:00:15.334Z,2304
2018-04-17T10:01:24.183Z,2304
2018-04-17T10:02:33.027Z,2296
2018-04-17T10:03:41.867Z,2300
2018-04-17T10:04:50.697Z,2308
2018-04-17T10:05:59.537Z,2332
2018-04-17T10:07:08.386Z,2344
2018-04-17T10:08:17.224Z,2340
2018-04-17T10:09:26.066Z,2328
2018-04-17T10:10:34.900Z,2316
2018-04-17T10:11:43.744Z,2324
2018-04-17T10:12:52.577Z,2316
2018-04-17T10:14:01.421Z,2316
2018-04-17T10:15:10.249Z,2316
2018-04-17T10:16:19.097Z,2332
2018-04-17T10:17:27.993Z,2348
2018-04-17T10:18:37.060Z,2324
2018-04-17T10:19:45.886Z,2320
2018-04-17T10:20:54.727Z,2348
2018-04-17T10:22:03.568Z,2368
2018-04-17T10:23:12.405Z,2364
2018-04-17T10:24:21.246Z,2348
2018-04-17T10:25:30.085Z,2328
2018-04-17T10:26:38.967Z,2304
2018-04-17T10:27:47.878Z,2280
2018-04-17T10:28:56.845Z,2248
2018-04-17T10:30:06.510Z,2448
2018-04-17T10:31:15.488Z,2420
2018-04-17T10:32:24.427Z,2220
2018-04-17T10:33:33.347Z,2204
2018-04-17T10:34:42.330Z,2192
2018-04-17T10:35:51.317Z,2192
2018-04-17T10:37:00.266Z,2184
2018-04-17T10:38:09.526Z,2168
2018-04-17T10:39:18.737Z,2180
2018-04-17T10:40:27.565Z,1824
2018-04-17T10:41:36.389Z,2112
2018-04-17T10:42:45.213Z,2160
2018-04-17T10:43:54.042Z,2160
2018-04-17T10:45:02.867Z,2192
2018-04-17T10:46:11.691Z,2552
2018-04-17T10:47:20.507Z,2348
2018-04-17T10:48:29.331Z,2188
2018-04-17T10:49:38.165Z,2188
2018-04-17T10:50:46.994Z,2172
2018-04-17T10:51:55.806Z,2192
2018-04-17T10:53:04.630Z,2216
2018-04-17T10:54:13.455Z,2220
2018-04-17T10:55:22.282Z,2276
2018-04-17T10:56:31.103Z,2188
2018-04-17T10:57:40.200Z,2152
2018-04-17T10:58:49.072Z,2312
2018-04-17T10:59:58.001Z,2380
2018-04-17T11:01:06.961Z,2364
2018-04-17T11:02:15.835Z,2552
2018-04-17T11:03:24.776Z,2312
2018-04-17T11:04:33.957Z,2788
2018-04-17T11:05:42.889Z,2872
2018-04-17T11:06:51.799Z,3060
2018-04-17T11:08:00.722Z,2288
2018-04-17T11:09:09.567Z,1904
2018-04-17T11:10:18.396Z,2440
2018-04-17T11:11:27.223Z,2332
2018-04-17T11:12:36.053Z,2516
2018-04-17T11:13:44.873Z,2488
2018-04-17T11:14:53.700Z,2432
2018-04-17T11:16:02.522Z,2256
2018-04-17T11:17:11.353Z,2428
2018-04-17T11:18:20.177Z,2384
2018-04-17T11:19:29.005Z,2340
2018-04-17T11:20:37.926Z,2352
2018-04-17T11:21:46.763Z,2408
2018-04-17T11:22:55.582Z,2440
2018-04-17T11:24:04.413Z,2464
2018-04-17T11:25:13.234Z,2436
2018-04-17T11:26:22.067Z,2368
2018-04-17T11:27:31.159Z,2344
2018-04-17T11:28:40.079Z,2364
2018-04-17T11:29:48.898Z,2324
2018-04-17T11:30:57.727Z,2320
2018-04-17T11:32:06.549Z,2288
2018-04-17T11:33:15.375Z,2276
2018-04-17T11:34:24.232Z,2276
2018-04-17T11:35:33.434Z,2264
2018-04-17T11:36:42.357Z,2264
2018-04-17T11:37:51.299Z,2212
2018-04-17T11:39:00.183Z,2236
2018-04-17T11:40:09.111Z,2256
2018-04-17T11:41:18.273Z,2256
2018-04-17T11:42:27.117Z,2336
2018-04-17T11:43:36.044Z,2252
2018-04-17T11:44:45.213Z,2304
2018-04-17T11:45:54.146Z,2256
2018-04-17T11:47:02.979Z,2304
2018-04-17T11:48:11.856Z,1424
2018-04-17T11:49:20.841Z,1372
2018-04-17T11:50:29.777Z,1784
2018-04-17T11:51:38.664Z,2200
2018-04-17T11:52:47.969Z,2320
2018-04-17T11:55:26.548Z,2368
2018-04-17T11:56:35.823Z,2604
2018-04-17T11:57:44.654Z,2820
2018-04-17T11:58:53.486Z,2648
2018-04-17T12:00:02.355Z,1764
2018-04-17T12:01:11.151Z,1640
2018-04-17T12:02:20.030Z,1700
2018-04-17T12:03:28.833Z,2296
2018-04-17T12:04:37.926Z,2492
2018-04-17T12:05:46.766Z,1780
2018-04-17T12:06:55.583Z,2136
2018-04-17T12:08:04.413Z,1520
2018-04-17T12:09:13.239Z,2064
2018-04-17T12:10:22.074Z,1696
2018-04-17T12:11:30.905Z,1848
2018-04-17T12:12:39.731Z,2460
2018-04-17T12:13:48.828Z,2496
2018-04-17T12:14:57.659Z,2696
2018-04-17T12:16:06.488Z,3548
2018-04-17T12:17:15.318Z,3868
2018-04-17T12:18:24.149Z,3020
2018-04-17T12:19:32.969Z,2520
2018-04-17T12:20:41.803Z,2816
2018-04-17T12:21:50.629Z,2612
2018-04-17T12:22:59.463Z,2556
2018-04-17T12:24:08.282Z,3224
2018-04-17T12:25:17.112Z,1912
2018-04-17T12:26:26.214Z,1552
2018-04-17T12:27:35.043Z,2436
2018-04-17T12:28:43.861Z,2016
2018-04-17T12:29:52.698Z,2076
2018-04-17T12:31:01.534Z,2224
2018-04-17T12:32:10.356Z,2628
2018-04-17T12:33:19.183Z,3108
2018-04-17T12:34:28.010Z,2920
2018-04-17T12:35:37.116Z,2796
2018-04-17T12:36:45.944Z,2652
2018-04-17T12:37:55.313Z,2648
2018-04-17T12:39:04.141Z,2724
2018-04-17T12:40:12.970Z,3220
2018-04-17T12:41:22.061Z,3732
2018-04-17T12:42:31.167Z,3708
2018-04-17T12:43:39.995Z,3472
2018-04-17T12:44:48.819Z,3160
2018-04-17T12:45:57.643Z,2944
2018-04-17T12:47:06.479Z,3504
2018-04-17T12:48:15.305Z,3480
2018-04-17T12:49:24.413Z,3796
2018-04-17T12:50:33.236Z,3868
2018-04-17T12:51:42.064Z,3252
2018-04-17T12:52:50.898Z,2708
2018-04-17T12:53:59.721Z,2468
2018-04-17T12:55:08.546Z,2268
2018-04-17T12:56:17.372Z,2172
2018-04-17T12:57:26.208Z,2180
2018-04-17T12:58:35.036Z,2252
2018-04-17T12:59:43.867Z,2536
2018-04-17T13:00:52.967Z,3472
2018-04-17T13:02:02.060Z,3992
2018-04-17T13:03:10.895Z,4192
2018-04-17T13:04:19.725Z,4348
2018-04-17T13:05:28.559Z,4152
2018-04-17T13:06:37.657Z,3408
2018-04-17T13:07:46.556Z,3656
2018-04-17T13:08:55.427Z,4188
2018-04-17T13:10:04.247Z,4004
2018-04-17T13:11:13.124Z,3896
2018-04-17T13:12:21.981Z,3824
2018-04-17T13:13:30.843Z,3356
2018-04-17T13:14:39.647Z,3148
2018-04-17T13:15:48.666Z,2800
2018-04-17T13:16:57.544Z,2368
2018-04-17T13:18:06.447Z,2152
2018-04-17T13:19:15.281Z,2132
2018-04-17T13:20:24.188Z,2172
2018-04-17T13:21:33.456Z,2152
2018-04-17T13:22:42.912Z,2144
2018-04-17T13:23:52.057Z,2156
2018-04-17T13:25:00.886Z,2172
2018-04-17T13:26:09.718Z,2220
2018-04-17T13:27:18.556Z,2476
2018-04-17T13:28:27.374Z,2852
2018-04-17T13:29:36.378Z,2768
2018-04-17T13:30:45.633Z,2924
2018-04-17T13:31:54.536Z,2692
2018-04-17T13:33:03.371Z,2316
2018-04-17T13:34:12.194Z,2112
2018-04-17T13:35:21.745Z,2144
2018-04-17T13:36:30.937Z,2152
2018-04-17T13:37:39.895Z,2136
2018-04-17T13:38:49.132Z,2160
2018-04-17T13:39:58.066Z,2196
2018-04-17T13:41:07.229Z,2212
2018-04-17T13:42:16.546Z,1520
2018-04-17T13:43:25.382Z,1804
2018-04-17T13:44:34.326Z,1236
2018-04-17T13:45:43.845Z,1224
2018-04-17T13:46:52.783Z,2056
2018-04-17T13:48:01.611Z,1344
2018-04-17T13:49:10.430Z,1436
2018-04-17T13:50:19.261Z,2152
2018-04-17T13:51:28.082Z,1924
2018-04-17T13:52:36.915Z,2188
2018-04-17T13:53:45.739Z,2316
2018-04-17T13:54:54.578Z,2344
2018-04-17T13:56:03.403Z,2436
2018-04-17T13:57:12.239Z,2660
2018-04-17T13:58:21.064Z,2248
2018-04-17T13:59:29.891Z,2052
2018-04-17T14:00:38.713Z,2692
2018-04-17T14:01:47.562Z,2984
2018-04-17T14:02:56.382Z,2876
2018-04-17T14:04:05.476Z,2144
2018-04-17T14:05:14.300Z,2364
2018-04-17T14:06:23.128Z,2324
2018-04-17T14:07:31.962Z,2260
2018-04-17T14:08:40.799Z,2260
2018-04-17T14:09:49.682Z,1784
2018-04-17T14:10:58.719Z,2200
2018-04-17T14:12:08.084Z,2172
2018-04-17T14:13:16.911Z,2176
2018-04-17T14:14:25.877Z,2176
2018-04-17T14:15:34.709Z,2168
2018-04-17T14:16:43.534Z,2188
2018-04-17T14:17:52.417Z,1568
2018-04-17T14:19:01.343Z,1692
2018-04-17T14:20:10.591Z,2168
2018-04-17T14:21:19.567Z,2156
2018-04-17T14:22:28.668Z,2156
2018-04-17T14:23:37.499Z,2180
2018-04-17T14:24:46.328Z,2176
2018-04-17T14:25:55.151Z,2160
2018-04-17T14:27:04.366Z,2172
2018-04-17T14:28:13.197Z,2020
2018-04-17T14:29:22.037Z,2152
2018-04-17T14:30:30.866Z,2100
2018-04-17T14:31:39.696Z,1324
2018-04-17T14:32:48.789Z,1368
2018-04-17T14:33:57.628Z,1372
2018-04-17T14:35:06.455Z,1228
2018-04-17T14:36:15.281Z,1212
2018-04-17T14:37:24.118Z,1240
2018-04-17T14:38:32.986Z,1308
2018-04-17T14:39:41.903Z,1392
2018-04-17T14:40:50.848Z,1432
2018-04-17T14:42:00.318Z,1404
2018-04-17T14:43:09.310Z,1404
2018-04-17T14:44:18.414Z,1720
2018-04-17T14:45:27.286Z,1380
2018-04-17T14:46:36.479Z,1448
2018-04-17T14:47:45.350Z,1580
2018-04-17T14:48:54.443Z,1304
2018-04-17T14:50:03.551Z,1224
2018-04-17T14:51:12.388Z,1204
2018-04-17T14:52:21.210Z,1852
2018-04-17T14:53:30.040Z,1852
2018-04-17T14:54:38.864Z,1872
2018-04-17T14:55:47.971Z,1868
2018-04-17T14:56:57.061Z,1052
2018-04-17T14:58:05.947Z,1332
2018-04-17T14:59:15.034Z,1772
2018-04-17T15:00:23.825Z,1540
2018-04-17T15:01:32.656Z,1788
2018-04-17T15:02:41.487Z,1792
2018-04-17T15:03:50.309Z,1788
2018-04-17T15:04:59.131Z,1776
2018-04-17T15:06:07.965Z,1700
2018-04-17T15:07:16.800Z,1652
2018-04-17T15:08:25.899Z,1692
2018-04-17T15:09:34.718Z,1680
2018-04-17T15:10:43.557Z,1376
2018-04-17T15:11:52.382Z,1192
2018-04-17T15:13:01.213Z,1644
2018-04-17T15:14:10.307Z,1400
2018-04-17T15:15:19.177Z,992
2018-04-17T15:16:28.351Z,1136
2018-04-17T15:17:37.300Z,1552
2018-04-17T15:18:46.257Z,1220
2018-04-17T15:19:55.077Z,1404
2018-04-17T15:21:03.905Z,1536
2018-04-17T15:22:12.729Z,1524
2018-04-17T15:23:21.564Z,1560
2018-04-17T15:24:30.398Z,1544
2018-04-17T15:25:39.223Z,1528
2018-04-17T15:26:48.051Z,1480
2018-04-17T15:27:56.895Z,1424
2018-04-17T15:29:05.756Z,1400
2018-04-17T15:30:14.582Z,1436
2018-04-17T15:31:23.415Z,1440
2018-04-17T15:32:32.245Z,1440
2018-04-17T15:33:41.341Z,1432
2018-04-17T15:34:50.175Z,1436
2018-04-17T15:35:59.002Z,1432
2018-04-17T15:37:07.927Z,1424
2018-04-17T15:38:16.901Z,1400
2018-04-17T15:39:25.675Z,1372
2018-04-17T15:40:34.771Z,1364
2018-04-17T15:41:43.600Z,1356
2018-04-17T15:42:52.424Z,1308
2018-04-17T15:44:01.265Z,1180
2018-04-17T15:45:10.093Z,1232
2018-04-17T15:46:19.193Z,1172
2018-04-17T15:47:28.022Z,1280
2018-04-17T15:48:36.847Z,1284
2018-04-17T15:49:46.371Z,1272
2018-04-17T15:50:55.635Z,948
2018-04-17T15:52:04.463Z,860
2018-04-17T15:53:13.295Z,892
2018-04-17T15:54:22.116Z,860
2018-04-17T15:55:31.220Z,1180
2018-04-17T15:56:40.090Z,1152
2018-04-17T15:57:48.919Z,1024
2018-04-17T15:58:57.744Z,1156
2018-04-17T16:00:06.577Z,1196
2018-04-17T16:01:15.401Z,1196
2018-04-17T16:02:24.228Z,1264
2018-04-17T16:03:33.760Z,1332
2018-04-17T16:04:42.549Z,1364
2018-04-17T16:05:51.423Z,1340
2018-04-17T16:07:00.379Z,1452
2018-04-17T16:08:09.574Z,1556
2018-04-17T16:09:18.817Z,1248
2018-04-17T16:10:28.088Z,1152
2018-04-17T16:11:37.249Z,1028
2018-04-17T16:12:46.238Z,932
2018-04-17T16:13:55.807Z,1108
2018-04-17T16:15:05.306Z,1208
2018-04-17T16:16:14.158Z,868
2018-04-17T16:17:23.361Z,796
2018-04-17T16:18:32.524Z,760
2018-04-17T16:19:41.462Z,724
2018-04-17T16:20:50.291Z,700
2018-04-17T16:21:59.112Z,696
2018-04-17T16:23:07.955Z,804
2018-04-17T16:24:16.777Z,856
2018-04-17T16:25:25.611Z,776
2018-04-17T16:26:34.711Z,712
2018-04-17T16:27:43.569Z,712
2018-04-17T16:28:52.396Z,720
2018-04-17T16:30:01.512Z,696
2018-04-17T16:31:10.671Z,688
2018-04-17T16:32:20.357Z,672
2018-04-17T16:33:29.497Z,740
2018-04-17T16:34:38.976Z,680
2018-04-17T16:35:48.031Z,672
2018-04-17T16:36:57.444Z,724
2018-04-17T16:38:06.328Z,732
2018-04-17T16:39:15.826Z,732
2018-04-17T16:40:24.652Z,732
2018-04-17T16:41:33.503Z,724
2018-04-17T16:42:42.345Z,704
2018-04-17T16:43:51.437Z,676
2018-04-17T16:45:00.268Z,640
2018-04-17T16:46:09.087Z,620
2018-04-17T16:47:18.195Z,600
2018-04-17T16:48:27.024Z,600
2018-04-17T16:49:36.124Z,620
2018-04-17T16:50:45.463Z,628
2018-04-17T16:51:54.285Z,624
2018-04-17T16:53:03.127Z,632
2018-04-17T16:54:11.986Z,628
2018-04-17T16:55:20.822Z,620
2018-04-17T16:56:29.649Z,604
2018-04-17T16:57:38.480Z,560
2018-04-17T16:58:47.364Z,564
2018-04-17T16:59:56.786Z,572
2018-04-17T17:01:06.022Z,564
2018-04-17T17:02:15.654Z,552
2018-04-17T17:03:24.653Z,540
2018-04-17T17:04:33.509Z,528
2018-04-17T17:05:42.605Z,508
2018-04-17T17:06:51.561Z,496
2018-04-17T17:08:00.814Z,480
2018-04-17T17:09:10.006Z,460
2018-04-17T17:10:19.090Z,436
2018-04-17T17:11:28.318Z,416
2018-04-17T17:12:37.150Z,424
2018-04-17T17:13:46.787Z,424
2018-04-17T17:14:56.100Z,432
2018-04-17T17:16:05.346Z,436
2018-04-17T17:17:14.357Z,428
2018-04-17T17:18:23.840Z,420
2018-04-17T17:19:33.481Z,404
2018-04-17T17:20:42.687Z,392
2018-04-17T17:21:51.576Z,380
2018-04-17T17:23:00.512Z,368
2018-04-17T17:24:09.741Z,360
2018-04-17T17:25:18.656Z,352
2018-04-17T17:26:27.946Z,344
2018-04-17T17:27:37.233Z,340
2018-04-17T17:28:46.833Z,336
2018-04-17T17:29:56.481Z,328
2018-04-17T17:31:05.404Z,324
2018-04-17T17:32:14.236Z,316
2018-04-17T17:33:23.055Z,312
2018-04-17T17:34:32.301Z,300
2018-04-17T17:35:41.127Z,292
2018-04-17T17:36:49.960Z,284
2018-04-17T17:37:58.787Z,276
2018-04-17T17:39:07.616Z,264
2018-04-17T17:40:16.712Z,252
2018-04-17T17:41:25.550Z,240
2018-04-17T17:42:34.363Z,232
2018-04-17T17:43:43.197Z,220
2018-04-17T17:44:52.022Z,212
2018-04-17T17:46:00.857Z,200
2018-04-17T17:47:09.959Z,184
2018-04-17T17:48:18.788Z,176
2018-04-17T17:49:27.892Z,168
2018-04-17T17:50:36.720Z,156
2018-04-17T17:51:45.558Z,148
2018-04-17T17:52:54.378Z,140
2018-04-17T17:54:03.207Z,128
2018-04-17T17:55:12.042Z,124
2018-04-17T17:56:21.171Z,112
2018-04-17T17:57:30.415Z,108
2018-04-17T17:58:39.204Z,100
2018-04-17T17:59:48.040Z,92
2018-04-17T18:00:56.887Z,84
2018-04-17T18:02:05.722Z,80
2018-04-17T18:03:14.573Z,72
2018-04-17T18:04:23.405Z,64
2018-04-17T18:05:32.259Z,56
2018-04-17T18:06:41.103Z,52
2018-04-17T18:07:49.958Z,48
2018-04-17T18:08:58.796Z,44
2018-04-17T18:10:07.626Z,36
2018-04-17T18:11:16.447Z,32
2018-04-17T18:12:25.329Z,28
2018-04-17T18:13:34.110Z,28
2018-04-17T18:14:43.221Z,24
2018-04-17T18:15:52.065Z,20
2018-04-17T18:17:00.911Z,20
2018-04-17T18:18:09.768Z,16
2018-04-17T18:19:18.606Z,16
2018-04-17T18:20:27.451Z,12
2018-04-17T18:21:36.292Z,12
2018-04-17T18:22:45.145Z,12
2018-04-17T18:23:53.988Z,8
2018-04-17T18:25:02.827Z,8
2018-04-17T18:26:11.666Z,4
2018-04-17T18:27:20.520Z,4
2018-04-17T18:28:29.368Z,4
2018-04-17T18:29:38.476Z,4
2018-04-17T18:30:47.332Z,0
2018-04-17T18:31:56.171Z,4
2018-04-17T18:33:05.024Z,4
2018-04-17T18:34:13.871Z,4
2018-04-17T18:35:22.985Z,0
2018-04-17T18:36:31.835Z,0
2018-04-17T18:37:40.683Z,0
2018-04-17T18:38:49.524Z,0
2018-04-17T18:39:58.381Z,0
2018-04-17T18:41:07.232Z,0
2018-04-17T18:42:16.075Z,0
2018-04-17T18:43:24.922Z,0
2018-04-17T18:44:33.769Z,0
2018-04-17T18:45:42.620Z,0
2018-04-17T18:46:51.470Z,0
2018-04-17T18:48:00.306Z,0
2018-04-17T18:49:09.147Z,0
2018-04-17T18:50:17.992Z,0
2018-04-17T18:51:26.831Z,0
2018-04-17T18:52:35.983Z,0
2018-04-17T18:53:44.802Z,0
2018-04-17T18:54:53.646Z,0
2018-04-17T18:56:02.482Z,0
2018-04-17T18:57:11.329Z,0
2018-04-17T18:58:20.438Z,0
2018-04-17T18:59:29.292Z,0
2018-04-17T19:00:38.150Z,0
2018-04-17T19:01:46.980Z,0
2018-04-17T19:02:55.829Z,0
2018-04-17T19:04:04.675Z,0
2018-04-17T19:05:13.526Z,0
2018-04-17T19:06:22.363Z,0
2018-04-17T19:07:31.483Z,0
2018-04-17T19:08:40.319Z,0
2018-04-17T19:09:49.164Z,0
2018-04-17T19:10:57.989Z,0
2018-04-17T19:12:07.087Z,0
2018-04-17T19:13:15.918Z,0
2018-04-17T19:14:24.766Z,0
2018-04-17T19:15:33.873Z,0
2018-04-17T19:16:43.295Z,0
2018-04-17T19:17:52.455Z,0
2018-04-17T19:19:01.361Z,0
2018-04-17T19:20:10.305Z,0
2018-04-17T19:21:19.719Z,0
2018-04-17T19:22:28.723Z,0
2018-04-17T19:23:37.878Z,0
2018-04-17T19:24:46.858Z,0
2018-04-17T19:25:55.801Z,0
2018-04-17T19:27:05.020Z,0
2018-04-17T19:28:14.054Z,0
2018-04-17T19:29:22.901Z,0
2018-04-17T19:30:31.825Z,0
2018-04-17T19:31:40.657Z,0
2018-04-17T19:32:49.648Z,0
2018-04-17T19:33:58.722Z,0
2018-04-17T19:35:07.660Z,0
2018-04-17T19:36:16.669Z,0
2018-04-17T19:37:25.533Z,0
2018-04-17T19:38:34.434Z,0
2018-04-17T19:39:44.051Z,0
2018-04-17T19:40:53.251Z,0
2018-04-17T19:42:02.482Z,0
2018-04-17T19:43:11.406Z,0
2018-04-17T19:44:20.328Z,0
2018-04-17T19:45:29.274Z,0
2018-04-17T19:46:38.394Z,0
2018-04-17T19:47:47.623Z,0
2018-04-17T19:48:56.752Z,0
2018-04-17T19:50:05.765Z,0
2018-04-17T19:51:14.693Z,0
2018-04-17T19:52:23.596Z,0
2018-04-17T19:53:32.866Z,0
2018-04-17T19:54:41.744Z,0
2018-04-17T19:55:50.967Z,0
2018-04-17T19:56:59.889Z,0
2018-04-17T19:58:08.738Z,0
2018-04-17T19:59:18.067Z,0
2018-04-17T20:00:27.232Z,0
2018-04-17T20:01:36.520Z,0
2018-04-17T20:02:45.490Z,0
2018-04-17T20:03:54.433Z,0
2018-04-17T20:05:03.959Z,0
2018-04-17T20:06:12.818Z,0
2018-04-17T20:07:22.081Z,0
2018-04-17T20:08:31.014Z,0
2018-04-17T20:09:39.928Z,0
2018-04-17T20:10:48.791Z,0
2018-04-17T20:11:58.530Z,0
2018-04-17T20:13:07.801Z,0
2018-04-17T20:14:16.640Z,0
2018-04-17T20:15:25.631Z,0
2018-04-17T20:16:34.606Z,0
2018-04-17T20:17:43.915Z,0
2018-04-17T20:18:53.424Z,0
2018-04-17T20:20:02.406Z,0
2018-04-17T20:21:11.873Z,0
2018-04-17T20:22:21.049Z,0
2018-04-17T20:23:30.288Z,0
2018-04-17T20:24:39.300Z,0
2018-04-17T20:25:48.166Z,0
2018-04-17T20:26:57.478Z,0
2018-04-17T20:28:06.453Z,0
2018-04-17T20:29:15.423Z,0
2018-04-17T20:30:24.265Z,0
2018-04-17T20:31:33.168Z,0
2018-04-17T20:32:42.144Z,0
2018-04-17T20:33:51.018Z,0
2018-04-17T20:35:00.161Z,0
2018-04-17T20:36:09.070Z,0
2018-04-17T20:37:18.209Z,0
2018-04-17T20:38:27.036Z,0
2018-04-17T20:39:35.954Z,0
2018-04-17T20:40:45.553Z,0
2018-04-17T20:41:54.390Z,0
2018-04-17T20:43:03.216Z,0
2018-04-17T20:44:12.425Z,0
2018-04-17T20:45:21.247Z,0
2018-04-17T20:46:30.427Z,0
2018-04-17T20:47:39.255Z,0
2018-04-17T20:48:48.080Z,0
2018-04-17T20:49:56.940Z,0
2018-04-17T20:51:05.768Z,0
2018-04-17T20:52:14.840Z,0
2018-04-17T20:53:23.938Z,0
2018-04-17T20:54:32.770Z,0
2018-04-17T20:55:41.595Z,0
2018-04-17T20:56:50.411Z,0
2018-04-17T20:57:59.244Z,0
2018-04-17T20:59:08.078Z,0
2018-04-17T21:00:16.904Z,0
2018-04-17T21:01:25.737Z,0
2018-04-17T21:02:34.591Z,0
2018-04-17T21:03:43.442Z,0
2018-04-17T21:04:52.282Z,0
2018-04-17T21:06:01.129Z,0
2018-04-17T21:07:09.972Z,0
2018-04-17T21:08:18.820Z,0
2018-04-17T21:09:27.664Z,0
2018-04-17T21:10:36.509Z,0
2018-04-17T21:11:45.352Z,0
2018-04-17T21:12:54.189Z,0
2018-04-17T21:14:03.039Z,0
2018-04-17T21:15:11.939Z,0
2018-04-17T21:16:20.715Z,0
2018-04-17T21:17:29.934Z,0
